Time;durP1;ratioP1;P1;durP2;ratioP2;P2;SDS_P1;SDS_P2;PMS_P1;PMS_P2;Temp;Humidity;BMP_temperature;BMP_pressure;BME280_temperature;BME280_humidity;BME280_pressure;Samples;Min_cycle;Max_cycle;Signal;HPM_P1;HPM_P2
2021/05/23 00:00:25;;;;;;;18.13;8.45;;;10.30;99.90;;;;;;5063327;28;20536;-63
2021/05/23 00:02:59;;;;;;;13.32;7.78;;;10.30;99.90;;;;;;5052319;28;20075;-63
2021/05/23 00:05:27;;;;;;;14.82;8.35;;;10.20;99.90;;;;;;5052112;28;20127;-63
2021/05/23 00:08:04;;;;;;;16.38;8.13;;;10.30;99.90;;;;;;5053702;28;20021;-63
2021/05/23 00:10:31;;;;;;;16.85;7.30;;;10.30;99.90;;;;;;5053713;28;20028;-63
2021/05/23 00:13:00;;;;;;;13.02;7.90;;;10.30;99.90;;;;;;5053547;28;20087;-63
2021/05/23 00:15:51;;;;;;;19.30;8.30;;;10.30;99.90;;;;;;5053133;28;20510;-63
2021/05/23 00:18:17;;;;;;;20.33;8.35;;;10.30;99.90;;;;;;5052307;28;20036;-63
2021/05/23 00:20:44;;;;;;;19.08;8.63;;;10.30;99.90;;;;;;5066094;28;20028;-63
2021/05/23 00:23:10;;;;;;;12.32;7.70;;;10.40;99.90;;;;;;5073229;28;20036;-64
2021/05/23 00:25:37;;;;;;;16.40;7.60;;;10.30;99.90;;;;;;5072480;28;20032;-63
2021/05/23 00:28:03;;;;;;;13.75;7.40;;;10.30;99.90;;;;;;5070668;28;20132;-64
2021/05/23 00:30:29;;;;;;;17.33;7.55;;;10.30;99.90;;;;;;5071427;28;20036;-64
2021/05/23 00:32:55;;;;;;;18.00;7.82;;;10.30;99.90;;;;;;5072031;28;20384;-65
2021/05/23 00:35:21;;;;;;;13.82;7.45;;;10.30;99.90;;;;;;5071058;28;20473;-64
2021/05/23 00:37:46;;;;;;;12.07;7.47;;;10.40;99.90;;;;;;5063947;28;20033;-63
2021/05/23 00:40:12;;;;;;;12.57;6.88;;;10.30;99.90;;;;;;5062857;28;20469;-63
2021/05/23 00:42:39;;;;;;;14.52;7.30;;;10.30;99.90;;;;;;5071226;28;20024;-63
2021/05/23 00:45:07;;;;;;;12.60;7.20;;;10.30;99.90;;;;;;5072257;28;20070;-63
2021/05/23 00:47:32;;;;;;;16.27;6.53;;;10.30;99.90;;;;;;5067143;28;20013;-63
2021/05/23 00:49:58;;;;;;;15.52;5.65;;;10.20;99.90;;;;;;5067071;28;20020;-63
2021/05/23 00:52:24;;;;;;;12.90;5.43;;;10.30;99.90;;;;;;5072142;28;20024;-63
2021/05/23 00:54:50;;;;;;;15.75;5.45;;;10.30;99.90;;;;;;5070444;28;20473;-63
2021/05/23 00:57:16;;;;;;;15.82;5.40;;;10.30;99.90;;;;;;5062567;28;20424;-63
2021/05/23 00:59:42;;;;;;;14.20;6.13;;;10.30;99.90;;;;;;5053132;28;20448;-63
2021/05/23 01:02:07;;;;;;;17.35;5.65;;;10.30;99.90;;;;;;5052735;28;20061;-63
2021/05/23 01:04:34;;;;;;;11.65;5.65;;;10.30;99.90;;;;;;5052301;28;20505;-64
2021/05/23 01:07:00;;;;;;;12.32;5.32;;;10.30;99.90;;;;;;5053014;28;20525;-63
2021/05/23 01:09:26;;;;;;;11.43;4.55;;;10.30;99.90;;;;;;5051345;28;20035;-63
2021/05/23 01:11:51;;;;;;;12.70;4.45;;;10.30;99.90;;;;;;5051091;28;20516;-63
2021/05/23 01:14:47;;;;;;;15.02;5.13;;;10.30;99.90;;;;;;5051226;28;20385;-63
2021/05/23 01:17:14;;;;;;;17.05;4.68;;;10.30;99.90;;;;;;5052788;28;20039;-63
2021/05/23 01:19:56;;;;;;;13.57;4.55;;;10.30;99.90;;;;;;5051269;28;20048;-64
2021/05/23 01:22:34;;;;;;;11.98;4.80;;;10.30;99.90;;;;;;5051982;28;20556;-64
2021/05/23 01:25:06;;;;;;;18.23;4.55;;;10.30;99.90;;;;;;5050737;28;20040;-63
2021/05/23 01:27:37;;;;;;;14.70;4.43;;;10.20;99.90;;;;;;5052330;28;20371;-64
2021/05/23 01:30:09;;;;;;;16.88;4.43;;;10.30;99.90;;;;;;5050223;28;20699;-64
2021/05/23 01:32:41;;;;;;;15.13;4.40;;;10.30;99.90;;;;;;5050827;28;20017;-64
2021/05/23 01:35:16;;;;;;;15.70;4.03;;;10.30;99.90;;;;;;5050464;28;20033;-63
2021/05/23 01:37:43;;;;;;;11.52;4.03;;;10.30;99.90;;;;;;5050814;28;20035;-64
2021/05/23 01:40:09;;;;;;;14.90;3.85;;;10.20;99.90;;;;;;5052342;28;20415;-63
2021/05/23 01:42:35;;;;;;;11.80;4.03;;;10.20;99.90;;;;;;5051874;28;20456;-63
2021/05/23 01:45:01;;;;;;;12.95;3.90;;;10.20;99.90;;;;;;5051719;28;20029;-63
2021/05/23 01:47:27;;;;;;;11.05;3.65;;;10.20;99.90;;;;;;5051836;28;20355;-64
2021/05/23 01:49:53;;;;;;;11.55;3.15;;;10.20;99.90;;;;;;5051860;28;20032;-64
2021/05/23 01:52:19;;;;;;;13.45;3.25;;;10.10;99.90;;;;;;5051845;28;20017;-63
2021/05/23 01:54:44;;;;;;;12.50;3.42;;;10.10;99.90;;;;;;5050583;28;20029;-64
2021/05/23 01:57:10;;;;;;;11.55;3.70;;;10.10;99.90;;;;;;5051989;28;20021;-64
2021/05/23 01:59:36;;;;;;;11.30;3.78;;;10.10;99.90;;;;;;5053219;28;20041;-64
2021/05/23 02:02:01;;;;;;;14.82;3.65;;;10.10;99.90;;;;;;5051493;28;20036;-65
2021/05/23 02:04:27;;;;;;;12.50;3.75;;;10.10;99.90;;;;;;5050937;28;20029;-64
2021/05/23 02:06:53;;;;;;;10.60;2.83;;;10.10;99.90;;;;;;5051271;28;20048;-64
2021/05/23 02:09:18;;;;;;;12.93;4.18;;;10.00;99.90;;;;;;5051635;28;20047;-63
2021/05/23 02:11:44;;;;;;;15.80;4.50;;;10.00;99.90;;;;;;5051325;28;20036;-64
2021/05/23 02:14:10;;;;;;;13.57;4.25;;;10.00;99.90;;;;;;5049908;28;20075;-63
2021/05/23 02:16:36;;;;;;;15.10;4.10;;;10.00;99.90;;;;;;5051197;28;20036;-63
2021/05/23 02:19:02;;;;;;;14.55;4.28;;;9.90;99.90;;;;;;5052018;28;20481;-63
2021/05/23 02:21:28;;;;;;;16.42;4.40;;;10.00;99.90;;;;;;5049940;28;20021;-64
2021/05/23 02:23:55;;;;;;;14.02;4.38;;;9.90;99.90;;;;;;5051059;28;20126;-63
2021/05/23 02:26:22;;;;;;;10.65;3.80;;;9.90;99.90;;;;;;5051317;28;20028;-63
2021/05/23 02:28:47;;;;;;;14.90;4.25;;;9.80;99.90;;;;;;5054927;28;20052;-63
2021/05/23 02:31:13;;;;;;;18.60;4.65;;;9.80;99.90;;;;;;5049702;28;20029;-63
2021/05/23 02:33:39;;;;;;;12.57;3.72;;;9.80;99.90;;;;;;5051413;28;20033;-64
2021/05/23 02:36:05;;;;;;;10.02;3.88;;;9.80;99.90;;;;;;5051105;28;20032;-64
2021/05/23 02:38:31;;;;;;;8.98;4.20;;;9.80;99.90;;;;;;5051601;28;20449;-64
2021/05/23 02:40:56;;;;;;;13.30;4.63;;;9.80;99.90;;;;;;5050892;28;20060;-65
2021/05/23 02:43:23;;;;;;;18.33;5.45;;;9.70;99.90;;;;;;5051368;28;21451;-64
2021/05/23 02:45:49;;;;;;;20.35;6.88;;;9.80;99.90;;;;;;5050781;28;20053;-64
2021/05/23 02:48:15;;;;;;;16.85;5.90;;;9.80;99.90;;;;;;5049522;28;20423;-63
2021/05/23 02:50:44;;;;;;;24.33;6.00;;;9.80;99.90;;;;;;5050601;28;20100;-64
2021/05/23 02:53:11;;;;;;;17.92;6.47;;;9.70;99.90;;;;;;5050955;28;20031;-64
2021/05/23 02:55:39;;;;;;;21.92;7.18;;;9.70;99.90;;;;;;5070213;28;20021;-64
2021/05/23 02:58:06;;;;;;;17.13;6.20;;;9.70;99.90;;;;;;5062972;28;20482;-64
2021/05/23 03:00:32;;;;;;;18.63;6.63;;;9.70;99.90;;;;;;5051101;28;20029;-64
2021/05/23 03:02:58;;;;;;;20.15;5.90;;;9.60;99.90;;;;;;5050821;28;20024;-63
2021/05/23 03:05:24;;;;;;;11.18;4.38;;;9.50;99.90;;;;;;5050283;28;20040;-64
2021/05/23 03:07:53;;;;;;;19.58;5.53;;;9.50;99.90;;;;;;5051008;28;20025;-64
2021/05/23 03:10:21;;;;;;;16.92;5.65;;;9.50;99.90;;;;;;5049640;28;20497;-64
2021/05/23 03:12:48;;;;;;;18.83;6.13;;;9.40;99.90;;;;;;5050703;28;20032;-64
2021/05/23 03:15:20;;;;;;;17.55;5.60;;;9.30;99.90;;;;;;5050501;28;20036;-64
2021/05/23 03:17:45;;;;;;;11.38;4.20;;;9.30;99.90;;;;;;5050950;28;20033;-64
2021/05/23 03:20:13;;;;;;;17.88;5.50;;;9.20;99.90;;;;;;5050773;28;20167;-64
2021/05/23 03:22:40;;;;;;;23.92;5.47;;;9.20;99.90;;;;;;5050518;28;20057;-64
2021/05/23 03:25:08;;;;;;;15.98;4.57;;;9.20;99.90;;;;;;5050197;28;20128;-64
2021/05/23 03:27:34;;;;;;;18.48;5.47;;;9.10;99.90;;;;;;5057498;28;20131;-63
2021/05/23 03:30:00;;;;;;;17.02;5.07;;;9.00;99.90;;;;;;5069452;28;20489;-63
2021/05/23 03:32:26;;;;;;;19.05;4.65;;;9.00;99.90;;;;;;5056823;28;20052;-64
2021/05/23 03:34:51;;;;;;;20.95;4.13;;;8.90;99.90;;;;;;5050505;28;20233;-63
2021/05/23 03:37:17;;;;;;;15.00;4.68;;;8.90;99.90;;;;;;5069643;28;20074;-64
2021/05/23 03:39:43;;;;;;;14.80;4.40;;;8.90;99.90;;;;;;5063269;28;20079;-64
2021/05/23 03:42:09;;;;;;;20.60;4.18;;;8.90;99.90;;;;;;5050131;28;20513;-63
2021/05/23 03:44:35;;;;;;;13.68;4.10;;;8.80;99.90;;;;;;5048958;28;20481;-64
2021/05/23 03:47:00;;;;;;;13.25;4.70;;;8.80;99.90;;;;;;5049336;28;20021;-63
2021/05/23 03:49:26;;;;;;;12.73;4.10;;;8.70;99.90;;;;;;5050289;28;20096;-64
2021/05/23 03:51:52;;;;;;;11.10;3.88;;;8.70;99.90;;;;;;5049819;28;20021;-63
2021/05/23 03:54:17;;;;;;;12.38;4.07;;;8.70;99.90;;;;;;5055165;28;20432;-63
2021/05/23 03:56:43;;;;;;;22.08;4.80;;;8.70;99.90;;;;;;5073424;28;20052;-64
2021/05/23 03:59:09;;;;;;;17.92;4.28;;;8.60;99.90;;;;;;5073433;28;20054;-65
2021/05/23 04:01:35;;;;;;;11.27;3.38;;;8.50;99.90;;;;;;5061976;28;20083;-64
2021/05/23 04:04:01;;;;;;;13.95;3.47;;;8.50;99.90;;;;;;5053802;28;20539;-63
2021/05/23 04:06:27;;;;;;;16.02;4.15;;;8.50;99.90;;;;;;5061605;28;20052;-63
2021/05/23 04:08:54;;;;;;;22.65;3.88;;;8.50;99.90;;;;;;5073307;28;20024;-64
2021/05/23 04:11:24;;;;;;;13.35;3.83;;;8.50;99.90;;;;;;5056210;28;20025;-63
2021/05/23 04:13:50;;;;;;;10.98;3.13;;;8.40;99.90;;;;;;5060473;28;20112;-63
2021/05/23 04:16:16;;;;;;;15.52;3.90;;;8.30;99.90;;;;;;5053780;28;20021;-64
2021/05/23 04:18:41;;;;;;;13.88;3.92;;;8.40;99.90;;;;;;5053521;28;20393;-63
2021/05/23 04:21:07;;;;;;;17.70;4.20;;;8.30;99.90;;;;;;5053488;28;20028;-63
2021/05/23 04:23:34;;;;;;;13.15;3.92;;;8.20;99.90;;;;;;5052426;28;20029;-64
2021/05/23 04:26:00;;;;;;;18.48;3.85;;;8.20;99.90;;;;;;5052147;28;20040;-64
2021/05/23 04:28:26;;;;;;;18.50;4.55;;;8.20;99.90;;;;;;5060582;28;20049;-63
2021/05/23 04:30:52;;;;;;;15.70;3.47;;;8.20;99.90;;;;;;5053028;28;20115;-63
2021/05/23 04:33:17;;;;;;;12.23;3.60;;;8.20;99.90;;;;;;5053380;28;20551;-63
2021/05/23 04:35:44;;;;;;;13.88;3.33;;;8.10;99.90;;;;;;5060258;28;20067;-63
2021/05/23 04:38:09;;;;;;;15.98;3.75;;;8.20;99.90;;;;;;5053435;28;20468;-64
2021/05/23 04:40:35;;;;;;;15.60;3.45;;;8.20;99.90;;;;;;5051901;28;20048;-64
2021/05/23 04:43:02;;;;;;;20.65;4.05;;;8.10;99.90;;;;;;5052913;28;20032;-63
2021/05/23 04:45:28;;;;;;;11.43;2.80;;;8.10;99.90;;;;;;5051712;28;20086;-64
2021/05/23 04:47:54;;;;;;;14.45;3.20;;;8.10;99.90;;;;;;5053456;28;20028;-63
2021/05/23 04:50:20;;;;;;;16.88;3.58;;;8.20;99.90;;;;;;5052970;28;20028;-64
2021/05/23 04:52:46;;;;;;;12.20;4.00;;;8.20;99.90;;;;;;5051523;28;20425;-64
2021/05/23 04:55:12;;;;;;;14.93;3.80;;;8.20;99.90;;;;;;5051428;28;20029;-64
2021/05/23 04:57:38;;;;;;;11.40;3.33;;;8.20;99.90;;;;;;5067363;28;20123;-63
2021/05/23 05:00:10;;;;;;;13.55;3.20;;;8.20;99.90;;;;;;5070526;28;20107;-64
2021/05/23 05:02:36;;;;;;;16.77;3.47;;;8.20;99.90;;;;;;5058778;28;20020;-64
2021/05/23 05:05:04;;;;;;;17.83;2.80;;;8.20;99.90;;;;;;5069991;28;20024;-63
2021/05/23 05:07:30;;;;;;;16.05;4.03;;;8.30;99.90;;;;;;5056256;28;20021;-63
2021/05/23 05:09:56;;;;;;;16.90;3.30;;;8.30;99.90;;;;;;5052777;28;20394;-64
2021/05/23 05:12:22;;;;;;;12.82;2.92;;;8.30;99.90;;;;;;5060950;28;20028;-63
2021/05/23 05:14:48;;;;;;;13.65;2.78;;;8.30;99.90;;;;;;5056789;28;20017;-63
2021/05/23 05:17:13;;;;;;;16.88;3.60;;;8.40;99.90;;;;;;5061029;28;20590;-63
2021/05/23 05:19:40;;;;;;;18.55;3.15;;;8.40;99.90;;;;;;5057189;28;20032;-64
2021/05/23 05:22:06;;;;;;;11.27;3.20;;;8.40;99.90;;;;;;5052498;28;20035;-65
2021/05/23 05:24:31;;;;;;;14.27;3.60;;;8.40;99.90;;;;;;5063710;28;20115;-65
2021/05/23 05:26:57;;;;;;;17.02;3.10;;;8.50;99.90;;;;;;5055971;28;20041;-64
2021/05/23 05:29:24;;;;;;;15.60;3.78;;;8.50;99.90;;;;;;5051993;28;20032;-63
2021/05/23 05:31:50;;;;;;;21.30;3.58;;;8.50;99.90;;;;;;5050622;28;20033;-64
2021/05/23 05:34:16;;;;;;;11.85;2.53;;;8.60;99.90;;;;;;5064775;28;20054;-64
2021/05/23 05:36:41;;;;;;;16.58;3.13;;;8.60;99.90;;;;;;5052131;28;20032;-63
2021/05/23 05:39:07;;;;;;;10.55;2.90;;;8.70;99.90;;;;;;5052232;28;20121;-63
2021/05/23 05:41:33;;;;;;;10.90;2.80;;;8.70;99.90;;;;;;5050956;28;20385;-64
2021/05/23 05:43:59;;;;;;;10.10;2.80;;;8.70;99.90;;;;;;5050445;28;20060;-64
2021/05/23 05:46:25;;;;;;;14.70;3.47;;;8.70;99.90;;;;;;5053620;28;20158;-64
2021/05/23 05:48:51;;;;;;;11.10;2.70;;;8.80;99.90;;;;;;5069595;28;20115;-64
2021/05/23 05:51:16;;;;;;;9.52;2.90;;;8.80;99.90;;;;;;5062704;28;20104;-64
2021/05/23 05:53:42;;;;;;;13.52;3.63;;;8.90;99.90;;;;;;5052005;28;20057;-64
2021/05/23 05:56:08;;;;;;;12.68;3.45;;;8.90;99.90;;;;;;5050262;28;20528;-63
2021/05/23 05:58:34;;;;;;;17.63;3.10;;;8.90;99.90;;;;;;5051174;28;20550;-64
2021/05/23 06:01:00;;;;;;;14.20;3.42;;;8.90;99.90;;;;;;5050463;28;20040;-63
2021/05/23 06:03:25;;;;;;;10.90;3.03;;;9.00;99.90;;;;;;5050116;28;20131;-64
2021/05/23 06:05:51;;;;;;;12.75;2.95;;;9.00;99.90;;;;;;5050233;28;20029;-64
2021/05/23 06:08:16;;;;;;;13.13;3.25;;;9.10;99.90;;;;;;5051394;28;20121;-63
2021/05/23 06:10:42;;;;;;;12.50;3.05;;;9.10;99.90;;;;;;5050841;28;20025;-64
2021/05/23 06:13:08;;;;;;;9.93;2.75;;;9.10;99.90;;;;;;5051754;28;20025;-64
2021/05/23 06:15:34;;;;;;;15.82;4.07;;;9.10;99.90;;;;;;5051280;28;20493;-64
2021/05/23 06:18:00;;;;;;;9.40;2.20;;;9.20;99.90;;;;;;5055548;28;20062;-64
2021/05/23 06:20:26;;;;;;;15.23;4.18;;;9.30;99.90;;;;;;5062112;28;20040;-64
2021/05/23 06:22:51;;;;;;;9.18;2.72;;;9.30;99.90;;;;;;5049979;28;20029;-64
2021/05/23 06:25:17;;;;;;;10.98;2.20;;;9.30;99.90;;;;;;5049762;28;20375;-64
2021/05/23 06:27:43;;;;;;;13.10;2.83;;;9.30;99.90;;;;;;5051375;28;20567;-64
2021/05/23 06:30:09;;;;;;;11.93;3.33;;;9.50;99.90;;;;;;5057594;28;20028;-64
2021/05/23 06:32:35;;;;;;;9.77;2.47;;;9.60;99.90;;;;;;5049649;28;20032;-64
2021/05/23 06:35:01;;;;;;;9.25;2.30;;;9.70;99.90;;;;;;5059064;28;20079;-64
2021/05/23 06:37:27;;;;;;;13.23;2.65;;;9.90;99.90;;;;;;5058183;28;20504;-64
2021/05/23 06:39:53;;;;;;;11.27;2.42;;;10.00;99.90;;;;;;5049384;28;20025;-64
2021/05/23 06:42:19;;;;;;;10.00;2.33;;;10.20;99.90;;;;;;5050691;28;20021;-65
2021/05/23 06:44:47;;;;;;;7.38;2.30;;;10.20;99.90;;;;;;5051514;28;20509;-65
2021/05/23 06:47:13;;;;;;;12.02;3.00;;;10.50;99.90;;;;;;5049653;28;20521;-65
2021/05/23 06:49:40;;;;;;;6.90;1.75;;;11.20;99.90;;;;;;5049044;28;20116;-65
2021/05/23 06:52:06;;;;;;;10.00;2.20;;;11.90;99.90;;;;;;5057598;28;20021;-65
2021/05/23 06:54:32;;;;;;;7.97;2.13;;;12.20;99.90;;;;;;5050926;28;20082;-65
2021/05/23 06:56:58;;;;;;;8.65;2.25;;;12.80;99.90;;;;;;5049305;28;20148;-65
2021/05/23 06:59:26;;;;;;;9.05;2.22;;;12.90;99.90;;;;;;5050617;28;20033;-65
2021/05/23 07:01:52;;;;;;;7.25;1.67;;;13.00;99.90;;;;;;5050541;28;20485;-65
2021/05/23 07:04:18;;;;;;;9.23;2.10;;;13.40;99.90;;;;;;5048970;28;20029;-67
2021/05/23 07:06:43;;;;;;;9.82;1.92;;;13.80;99.90;;;;;;5051103;28;20115;-66
2021/05/23 07:09:09;;;;;;;7.35;1.35;;;14.10;99.90;;;;;;5050227;28;20025;-66
2021/05/23 07:11:37;;;;;;;7.75;1.80;;;14.10;99.90;;;;;;5050840;28;20029;-67
2021/05/23 07:14:06;;;;;;;7.30;2.42;;;14.00;99.90;;;;;;5051389;28;20029;-66
2021/05/23 07:16:32;;;;;;;6.07;1.75;;;13.60;99.90;;;;;;5049863;28;20032;-66
2021/05/23 07:18:57;;;;;;;6.10;1.95;;;13.40;99.90;;;;;;5057182;28;20025;-65
2021/05/23 07:21:23;;;;;;;10.45;1.50;;;13.30;99.90;;;;;;5050686;28;20376;-65
2021/05/23 07:23:51;;;;;;;11.43;2.15;;;13.40;99.90;;;;;;5050116;28;20029;-66
2021/05/23 07:26:20;;;;;;;7.25;1.58;;;13.10;99.90;;;;;;5050546;28;20036;-65
2021/05/23 07:28:46;;;;;;;8.18;1.90;;;12.60;99.90;;;;;;5052679;28;20512;-66
2021/05/23 07:31:12;;;;;;;7.10;1.88;;;12.70;99.90;;;;;;5052962;28;20033;-65
2021/05/23 07:33:38;;;;;;;7.85;1.63;;;12.70;99.90;;;;;;5053965;28;20040;-67
2021/05/23 07:36:07;;;;;;;8.20;1.20;;;13.20;99.90;;;;;;5054081;28;20021;-66
2021/05/23 07:38:33;;;;;;;10.18;1.90;;;13.70;99.90;;;;;;5054345;28;20059;-65
2021/05/23 07:41:00;;;;;;;7.65;1.70;;;13.00;99.90;;;;;;5054209;28;20068;-66
2021/05/23 07:43:25;;;;;;;8.57;2.10;;;13.30;99.90;;;;;;5053069;28;20029;-65
2021/05/23 07:45:52;;;;;;;2.97;1.15;;;13.00;99.90;;;;;;5053155;28;20160;-65
2021/05/23 07:48:18;;;;;;;7.82;2.22;;;12.30;99.90;;;;;;5069512;28;20099;-66
2021/05/23 07:50:44;;;;;;;4.50;1.90;;;11.90;99.90;;;;;;5072493;28;20127;-65
2021/05/23 07:53:09;;;;;;;7.10;1.98;;;11.60;99.90;;;;;;5072764;28;20029;-66
2021/05/23 07:55:35;;;;;;;5.85;2.00;;;11.90;99.90;;;;;;5054560;28;20374;-66
2021/05/23 07:58:02;;;;;;;12.20;2.95;;;12.90;99.90;;;;;;5053108;28;20025;-66
2021/05/23 08:00:28;;;;;;;6.22;2.40;;;12.60;99.90;;;;;;5052296;28;20275;-66
2021/05/23 08:02:54;;;;;;;9.23;1.67;;;12.30;99.90;;;;;;5053663;28;20048;-66
2021/05/23 08:05:20;;;;;;;6.38;1.45;;;12.20;99.90;;;;;;5053413;28;20029;-65
2021/05/23 08:07:45;;;;;;;3.78;1.30;;;11.90;99.90;;;;;;5053687;28;20521;-66
2021/05/23 08:10:12;;;;;;;5.20;1.40;;;11.90;99.90;;;;;;5053388;28;20033;-66
2021/05/23 08:12:38;;;;;;;7.40;1.38;;;13.20;99.90;;;;;;5053317;28;20250;-66
2021/05/23 08:15:05;;;;;;;9.23;1.60;;;13.60;99.90;;;;;;5053677;28;20055;-66
2021/05/23 08:17:31;;;;;;;5.78;1.48;;;13.20;99.90;;;;;;5053386;28;20029;-66
2021/05/23 08:19:56;;;;;;;5.10;1.33;;;13.20;99.90;;;;;;5053463;28;20543;-66
2021/05/23 08:22:22;;;;;;;5.80;1.35;;;13.00;99.90;;;;;;5053275;28;20026;-66
2021/05/23 08:24:47;;;;;;;8.60;2.00;;;13.00;99.90;;;;;;5053105;28;20036;-67
2021/05/23 08:27:13;;;;;;;7.22;1.52;;;12.60;99.90;;;;;;5056994;28;20095;-66
2021/05/23 08:29:39;;;;;;;8.50;2.13;;;12.70;99.90;;;;;;5053849;28;20025;-66
2021/05/23 08:32:05;;;;;;;9.25;1.90;;;13.10;99.90;;;;;;5053519;28;20024;-67
2021/05/23 08:34:31;;;;;;;7.82;1.77;;;13.90;99.90;;;;;;5051479;28;20029;-67
2021/05/23 08:36:56;;;;;;;5.20;1.17;;;13.90;99.90;;;;;;5053302;28;20386;-67
2021/05/23 08:39:22;;;;;;;4.57;1.30;;;14.20;99.90;;;;;;5051689;28;20032;-67
2021/05/23 08:41:48;;;;;;;6.07;1.48;;;13.90;99.90;;;;;;5051255;28;20538;-67
2021/05/23 08:44:20;;;;;;;4.90;1.20;;;13.90;99.90;;;;;;5052795;28;20037;-67
2021/05/23 08:46:51;;;;;;;4.35;1.35;;;14.50;99.90;;;;;;5061041;28;20184;-67
2021/05/23 08:49:22;;;;;;;8.40;1.30;;;14.80;99.90;;;;;;5051203;28;20033;-67
2021/05/23 08:51:49;;;;;;;8.75;1.75;;;14.60;99.90;;;;;;5052430;28;20498;-67
2021/05/23 08:54:16;;;;;;;7.72;1.60;;;14.00;99.90;;;;;;5052681;28;20013;-67
2021/05/23 08:56:42;;;;;;;7.93;1.60;;;14.40;99.90;;;;;;5051324;28;20029;-67
2021/05/23 08:59:09;;;;;;;5.97;1.13;;;13.70;99.90;;;;;;5052511;28;20026;-66
2021/05/23 09:01:36;;;;;;;7.35;1.80;;;13.20;99.90;;;;;;5052201;28;20098;-66
2021/05/23 09:04:05;;;;;;;5.00;1.25;;;13.00;99.90;;;;;;5052094;28;20576;-66
2021/05/23 09:06:36;;;;;;;6.63;1.52;;;12.90;99.90;;;;;;5053469;28;20137;-66
2021/05/23 09:09:07;;;;;;;8.10;1.60;;;12.50;99.90;;;;;;5052364;28;20028;-66
2021/05/23 09:11:33;;;;;;;7.88;1.77;;;12.50;99.90;;;;;;5052212;28;20174;-67
2021/05/23 09:13:59;;;;;;;7.32;1.80;;;12.40;99.90;;;;;;5052302;28;20025;-66
2021/05/23 09:16:25;;;;;;;5.25;1.23;;;12.50;99.90;;;;;;5051515;28;20027;-67
2021/05/23 09:18:53;;;;;;;8.88;1.60;;;13.40;99.90;;;;;;5059736;28;20473;-66
2021/05/23 09:21:24;;;;;;;8.65;1.77;;;13.90;99.90;;;;;;5051775;28;20238;-67
2021/05/23 09:23:55;;;;;;;5.50;1.58;;;14.00;99.90;;;;;;5052125;28;20021;-67
2021/05/23 09:26:23;;;;;;;5.70;1.35;;;14.60;99.90;;;;;;5053047;28;20051;-67
2021/05/23 09:28:51;;;;;;;7.03;1.20;;;14.60;99.90;;;;;;5051992;28;20044;-67
2021/05/23 09:31:21;;;;;;;5.93;1.45;;;14.60;99.90;;;;;;5058150;28;20041;-67
2021/05/23 09:33:52;;;;;;;7.20;0.93;;;15.30;99.90;;;;;;5050392;28;20040;-67
2021/05/23 09:36:19;;;;;;;7.43;1.52;;;15.40;99.90;;;;;;5051912;28;20485;-68
2021/05/23 09:38:59;;;;;;;7.20;1.77;;;14.70;99.90;;;;;;5050408;28;20029;-66
2021/05/23 09:41:32;;;;;;;3.65;1.25;;;14.10;99.90;;;;;;5051667;28;20410;-66
2021/05/23 09:44:10;;;;;;;;;;;14.00;99.90;;;;;;5051788;28;20079;-67
2021/05/23 09:46:36;;;;;;;5.65;1.17;;;13.70;99.90;;;;;;5055055;28;19923;-67
2021/05/23 09:49:02;;;;;;;6.60;1.35;;;13.90;99.90;;;;;;5061817;28;20027;-67
2021/05/23 09:51:28;;;;;;;8.85;1.58;;;14.70;99.90;;;;;;5050752;28;20028;-67
2021/05/23 09:54:00;;;;;;;8.15;1.02;;;15.10;99.90;;;;;;5051623;28;20013;-67
2021/05/23 09:56:31;;;;;;;5.63;1.40;;;16.40;99.90;;;;;;5051680;28;20115;-67
2021/05/23 09:58:57;;;;;;;6.55;1.67;;;16.40;99.90;;;;;;5050003;28;20029;-67
2021/05/23 10:01:28;;;;;;;3.20;1.13;;;15.50;99.90;;;;;;5052328;28;20043;-67
2021/05/23 10:03:56;;;;;;;4.32;1.23;;;14.60;99.90;;;;;;5049881;28;20021;-66
2021/05/23 10:06:30;;;;;;;7.22;1.60;;;14.20;99.90;;;;;;5050880;28;20029;-66
2021/05/23 10:08:57;;;;;;;4.25;1.83;;;14.10;99.90;;;;;;5050910;28;20071;-67
2021/05/23 10:11:23;;;;;;;5.30;1.23;;;14.30;99.90;;;;;;5051051;28;20029;-68
2021/05/23 10:13:49;;;;;;;6.05;1.80;;;14.80;99.90;;;;;;5051306;28;20013;-67
2021/05/23 10:16:16;;;;;;;5.65;1.30;;;15.60;99.90;;;;;;5049945;28;20029;-68
2021/05/23 10:18:44;;;;;;;5.43;1.55;;;16.20;99.20;;;;;;5050021;28;20067;-67
2021/05/23 10:21:11;;;;;;;3.00;1.10;;;16.20;97.00;;;;;;5049401;28;20136;-67
2021/05/23 10:23:41;;;;;;;4.28;1.15;;;15.60;98.90;;;;;;5050624;28;20048;-68
2021/05/23 10:26:10;;;;;;;7.55;1.50;;;15.80;99.90;;;;;;5049973;28;20094;-67
2021/05/23 10:28:39;;;;;;;4.68;1.15;;;15.70;95.90;;;;;;5050935;28;20045;-67
2021/05/23 10:31:06;;;;;;;5.53;1.33;;;15.10;98.80;;;;;;5057373;28;20470;-67
2021/05/23 10:33:32;;;;;;;6.22;1.13;;;15.30;99.00;;;;;;5050739;28;20025;-67
2021/05/23 10:35:57;;;;;;;6.72;1.40;;;15.60;97.90;;;;;;5050706;28;20548;-67
2021/05/23 10:38:23;;;;;;;6.65;1.50;;;15.80;97.30;;;;;;5050725;28;20048;-67
2021/05/23 10:40:55;;;;;;;3.00;1.00;;;15.40;97.00;;;;;;5051065;28;20032;-67
2021/05/23 10:43:24;;;;;;;5.00;1.50;;;15.20;99.70;;;;;;5050701;28;20074;-67
2021/05/23 10:46:01;;;;;;;3.72;1.10;;;14.80;99.90;;;;;;5050382;28;20112;-67
2021/05/23 10:48:27;;;;;;;5.05;1.50;;;15.10;99.90;;;;;;5050755;28;20025;-67
2021/05/23 10:50:52;;;;;;;5.28;1.25;;;15.00;99.90;;;;;;5057981;28;20174;-67
2021/05/23 10:53:18;;;;;;;4.30;1.45;;;15.50;99.90;;;;;;5050457;28;20025;-67
2021/05/23 10:55:50;;;;;;;5.60;1.20;;;15.80;98.60;;;;;;5050654;28;20036;-67
2021/05/23 10:58:23;;;;;;;8.25;1.40;;;15.80;99.70;;;;;;5049204;28;20549;-67
2021/05/23 11:00:57;;;;;;;8.13;1.20;;;16.20;98.10;;;;;;5051337;28;20056;-67
2021/05/23 11:03:25;;;;;;;6.20;1.30;;;16.60;97.70;;;;;;5048294;28;20032;-67
2021/05/23 11:06:03;;;;;;;4.90;1.10;;;17.40;93.30;;;;;;5049717;28;20043;-65
2021/05/23 11:08:30;;;;;;;3.72;1.10;;;17.70;91.90;;;;;;5049088;28;20580;-67
2021/05/23 11:10:56;;;;;;;8.10;1.70;;;17.20;93.10;;;;;;5049064;28;20616;-67
2021/05/23 11:13:33;;;;;;;5.50;1.40;;;16.90;95.00;;;;;;5050345;28;20096;-67
2021/05/23 11:16:10;;;;;;;3.50;1.05;;;16.50;95.30;;;;;;5050306;28;20063;-67
2021/05/23 11:18:36;;;;;;;5.20;1.23;;;16.30;96.90;;;;;;5051106;28;20112;-67
2021/05/23 11:21:14;;;;;;;3.55;0.80;;;16.70;98.60;;;;;;5050125;28;20437;-67
2021/05/23 11:23:50;;;;;;;5.80;1.13;;;16.40;93.10;;;;;;5057148;28;20112;-67
2021/05/23 11:26:17;;;;;;;4.78;1.30;;;16.10;94.80;;;;;;5050072;28;20032;-67
2021/05/23 11:28:58;;;;;;;2.40;0.88;;;16.10;95.70;;;;;;5049984;28;20040;-67
2021/05/23 11:31:29;;;;;;;3.15;0.90;;;16.60;93.30;;;;;;5049773;28;20025;-67
2021/05/23 11:33:56;;;;;;;3.85;1.08;;;16.30;94.80;;;;;;5049905;28;20064;-67
2021/05/23 11:36:24;;;;;;;4.72;1.13;;;16.00;95.50;;;;;;5050070;28;20389;-68
2021/05/23 11:38:54;;;;;;;2.72;0.65;;;15.60;96.20;;;;;;5048548;28;20063;-67
2021/05/23 11:41:38;;;;;;;2.78;0.90;;;15.30;99.80;;;;;;5050323;28;20280;-67
2021/05/23 11:44:06;;;;;;;4.72;1.05;;;15.30;98.00;;;;;;5049605;28;20067;-67
2021/05/23 11:46:33;;;;;;;2.60;0.90;;;15.40;99.40;;;;;;5050377;28;20029;-67
2021/05/23 11:48:59;;;;;;;4.85;1.30;;;16.00;99.60;;;;;;5049999;28;20044;-67
2021/05/23 11:51:30;;;;;;;2.97;0.98;;;16.10;97.60;;;;;;5048822;28;20071;-67
2021/05/23 11:53:58;;;;;;;2.38;0.80;;;16.50;97.30;;;;;;5049520;28;20021;-67
2021/05/23 11:56:29;;;;;;;4.10;0.85;;;16.20;97.20;;;;;;5049844;28;20025;-67
2021/05/23 11:58:57;;;;;;;1.55;0.52;;;16.60;94.60;;;;;;5050014;28;20029;-67
2021/05/23 12:01:27;;;;;;;4.95;1.00;;;17.20;94.00;;;;;;5056573;28;20699;-68
2021/05/23 12:03:59;;;;;;;2.85;0.85;;;16.80;93.00;;;;;;5049726;28;20036;-67
2021/05/23 12:06:25;;;;;;;;;;;17.20;88.30;;;;;;5050853;28;20115;-68
2021/05/23 12:08:51;;;;;;;2.58;1.00;;;16.70;92.20;;;;;;5049535;28;19995;-67
2021/05/23 12:11:17;;;;;;;3.53;0.85;;;16.30;95.50;;;;;;5058551;28;20500;-68
2021/05/23 12:13:49;;;;;;;3.35;0.80;;;16.50;95.70;;;;;;5069633;28;20066;-67
2021/05/23 12:16:20;;;;;;;1.95;0.90;;;16.90;93.60;;;;;;5072180;28;20343;-67
2021/05/23 12:18:54;;;;;;;3.40;1.00;;;16.70;96.80;;;;;;5073758;28;20512;-67
2021/05/23 12:21:22;;;;;;;7.65;1.27;;;16.90;94.90;;;;;;5071982;28;20115;-67
2021/05/23 12:23:54;;;;;;;4.47;1.05;;;16.50;93.70;;;;;;5068845;28;20036;-67
2021/05/23 12:26:20;;;;;;;2.03;0.70;;;16.60;95.30;;;;;;5060892;28;20039;-67
2021/05/23 12:28:49;;;;;;;2.20;0.82;;;17.00;93.40;;;;;;5071627;28;20097;-67
2021/05/23 12:31:17;;;;;;;3.20;0.65;;;16.90;93.40;;;;;;5073016;28;20079;-67
2021/05/23 12:33:54;;;;;;;4.63;1.10;;;16.40;93.40;;;;;;5071481;28;20048;-68
2021/05/23 12:36:25;;;;;;;4.05;0.80;;;15.90;95.20;;;;;;5072956;28;20240;-68
2021/05/23 12:38:59;;;;;;;3.08;0.85;;;15.60;97.00;;;;;;5051730;28;20493;-67
2021/05/23 12:41:45;;;;;;;1.85;0.77;;;16.00;97.00;;;;;;5053889;28;20085;-68
2021/05/23 12:44:18;;;;;;;2.50;0.57;;;16.50;91.90;;;;;;5063468;28;20571;-67
2021/05/23 12:46:45;;;;;;;2.33;0.70;;;17.30;90.50;;;;;;5051657;28;20055;-67